Time;durP1;ratioP1;P1;durP2;ratioP2;P2;SDS_P1;SDS_P2;PMS_P1;PMS_P2;Temp;Humidity;BMP_temperature;BMP_pressure;BME280_temperature;BME280_humidity;BME280_pressure;Samples;Min_cycle;Max_cycle;Signal;HPM_P1;HPM_P2
2022/03/09 00:03:30;;;;;;;10.27;9.13;;;3.30;66.10;;;;;;10442358;28;20282;-86
2022/03/09 00:08:33;;;;;;;8.50;7.43;;;3.20;68.90;;;;;;10418599;28;20231;-86
2022/03/09 00:13:36;;;;;;;9.53;8.60;;;3.20;67.60;;;;;;10426686;28;20757;-86
2022/03/09 00:18:38;;;;;;;9.37;8.37;;;3.10;67.50;;;;;;10425261;28;20252;-87
2022/03/09 00:23:41;;;;;;;8.43;7.63;;;3.10;67.00;;;;;;10429005;28;20229;-87
2022/03/09 00:28:46;;;;;;;9.90;8.17;;;2.90;68.70;;;;;;10444838;28;20205;-85
2022/03/09 00:33:49;;;;;;;9.07;8.17;;;2.90;68.40;;;;;;10441789;28;20646;-85
2022/03/09 00:38:51;;;;;;;14.83;10.40;;;2.90;68.30;;;;;;10414963;28;20274;-85
2022/03/09 00:43:55;;;;;;;14.60;10.40;;;2.90;68.50;;;;;;10417140;28;20228;-85
2022/03/09 00:48:57;;;;;;;16.17;12.33;;;2.90;68.70;;;;;;10433662;28;20707;-85
2022/03/09 00:54:00;;;;;;;10.53;8.60;;;2.90;69.80;;;;;;10419190;28;20283;-85
2022/03/09 00:59:03;;;;;;;9.27;8.17;;;2.90;70.10;;;;;;10446183;28;20251;-85
2022/03/09 01:04:05;;;;;;;8.80;7.90;;;3.00;68.00;;;;;;10439818;28;20267;-85
2022/03/09 01:09:07;;;;;;;9.60;8.70;;;3.00;67.20;;;;;;10434787;28;20213;-86
2022/03/09 01:14:11;;;;;;;9.10;7.80;;;2.90;67.40;;;;;;10452679;28;20320;-86
2022/03/09 01:19:13;;;;;;;9.27;8.37;;;2.80;69.10;;;;;;10436811;28;20660;-85
2022/03/09 01:24:15;;;;;;;9.07;8.17;;;2.70;68.50;;;;;;10429190;28;20251;-86
2022/03/09 01:29:19;;;;;;;8.80;7.67;;;2.60;69.80;;;;;;10447921;28;20292;-86
2022/03/09 01:34:21;;;;;;;11.90;8.80;;;2.60;69.60;;;;;;10429330;28;20221;-85
2022/03/09 01:39:24;;;;;;;22.40;12.90;;;2.50;69.80;;;;;;10441378;28;20197;-85
2022/03/09 01:44:29;;;;;;;10.07;7.87;;;2.50;71.40;;;;;;10458252;28;20209;-86
2022/03/09 01:49:31;;;;;;;8.30;7.47;;;2.50;72.80;;;;;;10451129;28;20201;-87
2022/03/09 01:54:33;;;;;;;8.37;7.60;;;2.60;72.10;;;;;;10432478;28;20270;-85
2022/03/09 01:59:37;;;;;;;10.20;8.00;;;2.70;70.00;;;;;;10457008;28;20215;-86
2022/03/09 02:04:39;;;;;;;10.07;8.17;;;2.60;69.90;;;;;;10443099;28;20221;-86
2022/03/09 02:09:44;;;;;;;8.90;8.00;;;2.50;69.20;;;;;;10429304;28;20544;-86
2022/03/09 02:14:50;;;;;;;9.90;8.30;;;2.50;69.60;;;;;;10436706;28;20221;-86
2022/03/09 02:19:53;;;;;;;9.40;7.50;;;2.40;69.30;;;;;;10419118;28;20255;-87
2022/03/09 02:24:56;;;;;;;14.33;9.60;;;2.30;69.10;;;;;;10424273;28;20312;-87
2022/03/09 02:29:58;;;;;;;13.23;9.83;;;2.20;71.60;;;;;;10437881;28;20197;-85
2022/03/09 02:35:01;;;;;;;9.17;8.30;;;2.20;70.80;;;;;;10425062;28;20311;-86
2022/03/09 02:40:09;;;;;;;9.97;7.67;;;2.30;69.40;;;;;;10426123;28;20669;-85
2022/03/09 02:45:12;;;;;;;10.40;8.87;;;2.20;70.20;;;;;;10449252;22;20316;-81
2022/03/09 02:50:15;;;;;;;9.03;8.13;;;2.20;72.00;;;;;;10473845;28;20204;-82
2022/03/09 02:55:19;;;;;;;8.97;7.30;;;2.20;71.40;;;;;;10457416;28;20217;-80
2022/03/09 03:00:21;;;;;;;7.90;7.20;;;2.20;69.90;;;;;;10417440;28;20205;-80
2022/03/09 03:05:24;;;;;;;10.80;7.50;;;2.10;69.80;;;;;;10442234;28;20584;-80
2022/03/09 03:10:27;;;;;;;9.53;8.57;;;2.00;69.90;;;;;;10448107;28;20193;-80
2022/03/09 03:15:29;;;;;;;9.70;8.70;;;2.00;74.00;;;;;;10445505;28;20200;-80
2022/03/09 03:20:31;;;;;;;9.30;8.10;;;2.10;73.20;;;;;;10443559;28;20202;-80
2022/03/09 03:25:35;;;;;;;9.30;8.40;;;2.20;71.30;;;;;;10415876;28;20221;-80
2022/03/09 03:30:37;;;;;;;9.07;8.17;;;2.20;72.10;;;;;;10396040;28;20208;-80
2022/03/09 03:35:39;;;;;;;8.77;7.97;;;2.10;72.60;;;;;;10441769;28;20576;-80
2022/03/09 03:40:43;;;;;;;9.20;8.30;;;2.10;72.20;;;;;;10386402;28;20692;-80
2022/03/09 03:45:45;;;;;;;9.90;8.90;;;2.00;70.40;;;;;;10441058;28;20220;-80
2022/03/09 03:50:48;;;;;;;10.17;9.10;;;1.90;70.40;;;;;;10429777;28;20566;-80
2022/03/09 03:55:51;;;;;;;8.80;8.00;;;1.90;74.20;;;;;;10411043;28;20648;-80
2022/03/09 04:00:53;;;;;;;8.97;8.20;;;2.00;73.80;;;;;;10436788;28;20197;-80
2022/03/09 04:05:56;;;;;;;8.73;7.90;;;2.00;73.90;;;;;;10429305;28;20297;-80
2022/03/09 04:10:59;;;;;;;9.77;8.77;;;2.10;72.80;;;;;;10405343;28;20346;-80
2022/03/09 04:16:01;;;;;;;10.03;8.57;;;2.10;73.10;;;;;;10381332;28;20236;-80
2022/03/09 04:21:03;;;;;;;10.03;8.60;;;2.20;73.80;;;;;;10421305;28;20197;-80
2022/03/09 04:26:07;;;;;;;8.27;7.47;;;2.20;70.80;;;;;;10393469;28;20749;-80
2022/03/09 04:31:09;;;;;;;9.80;8.70;;;2.10;70.70;;;;;;10407320;28;20197;-80
2022/03/09 04:36:11;;;;;;;11.00;9.70;;;1.90;71.80;;;;;;10415945;28;20239;-79
2022/03/09 04:41:15;;;;;;;10.10;9.10;;;1.90;74.10;;;;;;10453211;28;20205;-80
2022/03/09 04:46:17;;;;;;;10.83;9.73;;;1.90;73.60;;;;;;10464113;28;20700;-80
2022/03/09 04:51:20;;;;;;;10.23;9.10;;;1.90;71.70;;;;;;10422058;28;20209;-80
2022/03/09 04:56:24;;;;;;;10.37;9.27;;;1.90;71.90;;;;;;10416546;28;20221;-80
2022/03/09 05:01:26;;;;;;;10.00;9.00;;;1.80;73.90;;;;;;10438981;28;20200;-80
2022/03/09 05:06:28;;;;;;;10.60;9.57;;;1.80;73.20;;;;;;10450888;28;20213;-81
2022/03/09 05:11:32;;;;;;;10.37;9.27;;;1.80;75.00;;;;;;10436106;28;20205;-81
2022/03/09 05:16:34;;;;;;;9.50;8.60;;;1.90;74.90;;;;;;10416892;28;20253;-81
2022/03/09 05:21:37;;;;;;;11.17;10.07;;;2.00;74.40;;;;;;10406466;28;20677;-80
2022/03/09 05:26:40;;;;;;;10.47;9.40;;;1.90;72.50;;;;;;10406310;28;20214;-81
2022/03/09 05:31:45;;;;;;;11.93;10.20;;;1.90;74.40;;;;;;10413985;28;20209;-81
2022/03/09 05:36:47;;;;;;;11.53;10.10;;;1.90;74.40;;;;;;10416339;28;20307;-81
2022/03/09 05:41:50;;;;;;;13.23;10.83;;;1.80;72.90;;;;;;10444288;28;20530;-80
2022/03/09 05:46:52;;;;;;;11.93;10.70;;;1.70;74.00;;;;;;10436605;28;20295;-80
2022/03/09 05:51:55;;;;;;;11.77;10.50;;;1.60;73.30;;;;;;10402992;28;20288;-81
2022/03/09 05:56:58;;;;;;;13.40;10.10;;;1.60;74.00;;;;;;10456298;28;20220;-81
2022/03/09 06:02:01;;;;;;;15.77;11.20;;;1.60;74.10;;;;;;10401571;28;20289;-80
2022/03/09 06:07:03;;;;;;;12.77;10.20;;;1.60;74.30;;;;;;10387051;28;20749;-80
2022/03/09 06:12:08;;;;;;;14.10;11.47;;;1.70;74.70;;;;;;10465346;28;20683;-80
2022/03/09 06:17:10;;;;;;;14.30;11.00;;;1.70;73.90;;;;;;10468977;28;20583;-80
2022/03/09 06:22:12;;;;;;;13.10;10.80;;;1.70;75.20;;;;;;10401878;28;20664;-80
2022/03/09 06:27:15;;;;;;;11.23;9.90;;;1.70;75.50;;;;;;10423776;28;20218;-82
2022/03/09 06:32:17;;;;;;;15.27;10.50;;;1.80;75.20;;;;;;10395175;28;20221;-80
2022/03/09 06:37:19;;;;;;;19.70;11.60;;;1.80;74.30;;;;;;10435181;28;20229;-82
2022/03/09 06:42:23;;;;;;;12.97;10.23;;;1.80;73.50;;;;;;10460092;28;20622;-83
2022/03/09 06:47:25;;;;;;;13.40;11.30;;;1.80;75.20;;;;;;10436861;28;20272;-82
2022/03/09 06:52:27;;;;;;;12.63;10.70;;;1.90;75.20;;;;;;10468905;28;20196;-82
2022/03/09 06:57:31;;;;;;;12.37;10.00;;;1.90;73.30;;;;;;10442591;28;20224;-81
2022/03/09 07:02:34;;;;;;;17.50;13.50;;;2.00;74.90;;;;;;10445311;28;20227;-83
2022/03/09 07:07:37;;;;;;;13.43;11.50;;;2.00;76.20;;;;;;10441969;28;20688;-83
2022/03/09 07:12:41;;;;;;;12.97;10.63;;;2.00;76.90;;;;;;10463037;28;20209;-83
2022/03/09 07:17:44;;;;;;;13.10;11.27;;;2.20;75.90;;;;;;10444526;28;20293;-83
2022/03/09 07:22:47;;;;;;;16.30;11.00;;;2.30;75.50;;;;;;10430346;28;20205;-81
2022/03/09 07:27:50;;;;;;;15.63;11.20;;;2.40;75.10;;;;;;10429198;28;20292;-81
2022/03/09 07:32:52;;;;;;;18.40;12.60;;;2.40;74.80;;;;;;10386762;28;20240;-82
2022/03/09 07:37:54;;;;;;;15.53;12.47;;;2.50;75.20;;;;;;10425267;28;20221;-81
2022/03/09 07:42:58;;;;;;;15.80;11.73;;;2.60;74.90;;;;;;10407391;28;20202;-82
2022/03/09 07:48:00;;;;;;;16.17;12.10;;;2.70;75.30;;;;;;10430055;28;20231;-81
2022/03/09 07:53:02;;;;;;;15.40;11.97;;;2.80;76.10;;;;;;10409587;28;20204;-81
2022/03/09 07:58:06;;;;;;;16.57;12.00;;;2.90;75.30;;;;;;10420640;28;20233;-82
2022/03/09 08:03:08;;;;;;;15.43;13.10;;;3.00;74.80;;;;;;10412063;28;20189;-81
2022/03/09 08:08:10;;;;;;;18.40;13.37;;;3.20;73.80;;;;;;10458084;28;20242;-81
2022/03/09 08:13:13;;;;;;;16.93;13.30;;;3.30;74.60;;;;;;10471711;28;20629;-81
2022/03/09 08:18:16;;;;;;;27.00;14.60;;;3.50;74.70;;;;;;10436820;28;20248;-81
2022/03/09 08:23:18;;;;;;;17.03;13.90;;;3.60;73.80;;;;;;10441012;28;20189;-81
2022/03/09 08:28:22;;;;;;;21.40;13.73;;;3.80;75.00;;;;;;10466497;28;20208;-81
2022/03/09 08:33:26;;;;;;;20.60;14.63;;;4.00;75.30;;;;;;10481587;28;20230;-82
2022/03/09 08:38:28;;;;;;;17.73;14.17;;;4.20;75.00;;;;;;10453599;28;20602;-80
2022/03/09 08:43:32;;;;;;;16.20;13.30;;;4.30;74.90;;;;;;10468363;28;20197;-81
2022/03/09 08:48:35;;;;;;;17.23;12.97;;;4.60;74.30;;;;;;10459367;28;20296;-83
2022/03/09 08:53:37;;;;;;;14.10;11.57;;;4.70;73.40;;;;;;10463602;28;20668;-83
2022/03/09 08:58:41;;;;;;;15.37;12.53;;;4.80;71.50;;;;;;10473369;28;20217;-82
2022/03/09 09:03:43;;;;;;;18.23;11.70;;;5.10;71.20;;;;;;10448253;28;20200;-83
2022/03/09 09:08:45;;;;;;;12.23;11.10;;;5.30;72.20;;;;;;10449230;28;20537;-82
2022/03/09 09:13:49;;;;;;;11.47;10.30;;;5.50;69.40;;;;;;10461796;28;20713;-80
2022/03/09 09:18:51;;;;;;;12.83;11.37;;;5.70;66.20;;;;;;10460677;28;20282;-82
2022/03/09 09:23:53;;;;;;;11.17;10.10;;;5.90;70.40;;;;;;10479982;28;20196;-82
2022/03/09 09:28:57;;;;;;;12.90;10.57;;;6.10;68.20;;;;;;10469575;28;20612;-82
2022/03/09 09:33:59;;;;;;;13.57;10.00;;;6.30;68.70;;;;;;10451859;28;20222;-83
2022/03/09 09:39:01;;;;;;;12.23;10.07;;;6.50;67.30;;;;;;10447639;28;20515;-83
2022/03/09 09:44:05;;;;;;;12.07;10.83;;;6.70;68.20;;;;;;10429356;28;20595;-83
2022/03/09 09:49:09;;;;;;;15.10;10.80;;;7.00;67.70;;;;;;10445665;28;20200;-82
2022/03/09 09:54:15;;;;;;;14.60;11.50;;;7.30;66.20;;;;;;10434502;28;20223;-83
2022/03/09 09:59:19;;;;;;;16.67;12.10;;;7.50;65.70;;;;;;10430223;28;20220;-84
2022/03/09 10:04:21;;;;;;;12.60;10.80;;;7.80;64.20;;;;;;10428950;28;20258;-84
2022/03/09 10:09:23;;;;;;;13.73;12.33;;;8.00;63.30;;;;;;10429278;28;20696;-84
2022/03/09 10:19:58;;;;;;;13.60;12.13;;;8.20;63.90;;;;;;10535112;28;20526;-83
2022/03/09 10:25:02;;;;;;;18.70;12.80;;;8.20;58.90;;;;;;10498597;28;20228;-83
2022/03/09 10:30:06;;;;;;;14.27;12.77;;;8.20;59.50;;;;;;10500474;28;20200;-83
2022/03/09 10:35:10;;;;;;;13.50;12.10;;;8.10;63.60;;;;;;10501520;28;20225;-82
2022/03/09 10:40:14;;;;;;;15.87;12.50;;;8.10;59.70;;;;;;10477494;28;20224;-83
2022/03/09 10:45:18;;;;;;;19.27;13.20;;;8.00;60.70;;;;;;10477129;28;20280;-82
2022/03/09 10:50:24;;;;;;;14.30;12.77;;;8.10;59.80;;;;;;10479649;28;20204;-82
2022/03/09 10:55:30;;;;;;;17.00;12.73;;;8.10;59.00;;;;;;10479660;28;20628;-82
2022/03/09 11:00:38;;;;;;;14.13;12.10;;;8.10;62.10;;;;;;10500171;28;20263;-84
2022/03/09 11:05:54;;;;;;;16.10;14.07;;;8.10;61.70;;;;;;10479937;28;20431;-82
2022/03/09 11:10:58;;;;;;;18.37;15.00;;;8.10;58.10;;;;;;10489399;28;20228;-83
2022/03/09 11:16:01;;;;;;;20.30;13.87;;;8.20;57.30;;;;;;10483075;28;20267;-84
2022/03/09 11:21:06;;;;;;;18.67;15.10;;;8.30;58.80;;;;;;10477248;28;20311;-84
2022/03/09 11:26:12;;;;;;;18.83;14.70;;;8.40;56.60;;;;;;10502875;28;20217;-83
2022/03/09 11:31:15;;;;;;;19.60;15.07;;;8.40;57.20;;;;;;10449372;28;20224;-83
2022/03/09 11:36:37;;;;;;;22.10;16.80;;;8.50;57.10;;;;;;10437110;28;20239;-84
2022/03/09 11:41:41;;;;;;;21.70;15.57;;;8.60;54.20;;;;;;10452563;28;20817;-83
2022/03/09 11:47:04;;;;;;;19.50;14.63;;;8.60;55.80;;;;;;10467284;28;20269;-83
2022/03/09 11:52:09;;;;;;;20.80;16.10;;;8.60;56.50;;;;;;10441935;28;20212;-84
2022/03/09 11:57:12;;;;;;;18.80;14.77;;;8.60;53.30;;;;;;10436604;28;20256;-84
2022/03/09 12:02:18;;;;;;;16.20;14.30;;;8.60;56.60;;;;;;10436419;28;20209;-84
2022/03/09 12:07:47;;;;;;;17.90;14.83;;;8.60;54.00;;;;;;10462971;28;20348;-85
2022/03/09 12:13:17;;;;;;;17.73;13.20;;;8.60;54.70;;;;;;10448443;28;20232;-84
2022/03/09 12:18:39;;;;;;;15.63;13.60;;;8.60;58.70;;;;;;10449294;28;20236;-83
2022/03/09 12:24:29;;;;;;;16.27;13.37;;;8.60;57.90;;;;;;10443530;28;20765;-83
2022/03/09 12:29:39;;;;;;;16.43;13.07;;;8.70;56.30;;;;;;10449495;28;20692;-83
2022/03/09 12:34:44;;;;;;;14.13;12.20;;;8.70;53.30;;;;;;10467884;28;20865;-83
2022/03/09 12:39:51;;;;;;;15.70;13.43;;;8.80;55.70;;;;;;10462199;28;20249;-83
2022/03/09 12:44:59;;;;;;;14.90;11.97;;;8.70;59.20;;;;;;10448319;28;20224;-83
2022/03/09 12:50:01;;;;;;;15.00;11.40;;;8.70;56.00;;;;;;10445158;28;20280;-83
2022/03/09 12:55:03;;;;;;;16.93;13.50;;;8.70;57.70;;;;;;10423446;28;20217;-83
2022/03/09 13:00:10;;;;;;;15.87;12.60;;;8.70;55.80;;;;;;10451677;28;20209;-83
2022/03/09 13:05:14;;;;;;;13.67;11.67;;;8.80;58.20;;;;;;10447112;28;20228;-83
2022/03/09 13:10:17;;;;;;;13.50;11.87;;;8.80;56.70;;;;;;10443486;28;20508;-83
2022/03/09 13:15:21;;;;;;;12.47;10.93;;;8.80;61.00;;;;;;10433140;28;20232;-83
2022/03/09 13:20:23;;;;;;;15.43;13.50;;;8.90;57.50;;;;;;10429015;28;20233;-83
2022/03/09 13:25:30;;;;;;;16.40;13.37;;;8.90;59.40;;;;;;10445717;28;20229;-83
2022/03/09 13:30:34;;;;;;;14.97;12.47;;;9.00;60.00;;;;;;10455639;28;20323;-83
2022/03/09 13:35:47;;;;;;;13.80;12.40;;;9.00;58.50;;;;;;10440412;28;20263;-83
2022/03/09 13:40:50;;;;;;;18.40;13.50;;;9.00;60.40;;;;;;10466087;28;20201;-83
2022/03/09 13:45:53;;;;;;;17.53;14.03;;;9.00;63.30;;;;;;10467318;28;20236;-84
2022/03/09 13:51:01;;;;;;;17.23;13.67;;;9.00;60.10;;;;;;10439405;28;20649;-83
2022/03/09 13:56:04;;;;;;;17.50;13.50;;;9.00;59.70;;;;;;10440427;28;20227;-84
2022/03/09 14:01:09;;;;;;;18.87;15.47;;;9.00;62.10;;;;;;10439613;28;20204;-84
2022/03/09 14:06:16;;;;;;;15.67;12.93;;;9.10;64.00;;;;;;10437492;28;20221;-84
2022/03/09 14:11:20;;;;;;;17.60;14.67;;;9.00;64.90;;;;;;10455881;28;20197;-83
2022/03/09 14:16:24;;;;;;;20.00;16.17;;;9.00;61.10;;;;;;10461180;28;20221;-84
2022/03/09 14:21:27;;;;;;;21.50;15.80;;;9.10;61.80;;;;;;10464359;28;20212;-85
2022/03/09 14:26:33;;;;;;;16.47;14.23;;;9.10;65.10;;;;;;10447628;28;20259;-84
2022/03/09 14:31:36;;;;;;;21.13;14.63;;;9.10;65.70;;;;;;10436385;28;20223;-83
2022/03/09 14:36:39;;;;;;;18.63;15.13;;;9.20;62.20;;;;;;10453042;28;20209;-83
2022/03/09 14:41:42;;;;;;;17.60;14.13;;;9.30;60.70;;;;;;10455122;28;20197;-84
2022/03/09 14:46:45;;;;;;;19.77;14.40;;;9.30;62.70;;;;;;10442941;22;20600;-85
2022/03/09 14:51:47;;;;;;;19.53;14.40;;;9.30;63.70;;;;;;10448981;28;20251;-86
2022/03/09 14:56:50;;;;;;;17.73;14.20;;;9.30;63.30;;;;;;10425110;28;20220;-85
2022/03/09 15:01:54;;;;;;;17.30;14.03;;;9.30;60.70;;;;;;10456213;28;20203;-84
2022/03/09 15:07:00;;;;;;;21.43;14.47;;;9.40;55.90;;;;;;10415826;28;20220;-85
2022/03/09 15:12:03;;;;;;;19.33;14.67;;;9.80;52.10;;;;;;10458884;28;20197;-85
2022/03/09 15:17:28;;;;;;;18.17;11.90;;;10.20;49.50;;;;;;10428922;28;20206;-86
2022/03/09 15:22:31;;;;;;;15.17;12.80;;;10.40;52.10;;;;;;10426076;28;20652;-86
2022/03/09 15:27:36;;;;;;;17.40;13.57;;;10.40;54.20;;;;;;10428792;28;20224;-86
2022/03/09 15:32:44;;;;;;;19.27;15.43;;;10.30;54.60;;;;;;10433465;28;20204;-85
2022/03/09 15:37:51;;;;;;;26.63;15.33;;;10.20;52.30;;;;;;10457383;28;20313;-85
2022/03/09 15:42:53;;;;;;;19.97;13.70;;;10.20;53.20;;;;;;10422956;28;20684;-85
2022/03/09 15:47:56;;;;;;;20.50;15.37;;;10.20;53.70;;;;;;10427913;28;20308;-86
2022/03/09 15:53:00;;;;;;;20.07;14.33;;;10.20;53.20;;;;;;10427122;28;20240;-85
2022/03/09 15:58:04;;;;;;;17.80;13.50;;;10.20;54.60;;;;;;10435681;28;20312;-84
2022/03/09 16:09:23;;;;;;;17.73;14.07;;;10.10;58.50;;;;;;10449025;28;20308;-86
2022/03/09 16:14:28;;;;;;;17.67;13.60;;;10.00;55.30;;;;;;10389922;28;20228;-86
2022/03/09 16:19:31;;;;;;;17.17;12.77;;;10.00;54.40;;;;;;10429700;28;20590;-85
2022/03/09 16:24:41;;;;;;;17.67;14.13;;;10.00;59.90;;;;;;10435287;28;20240;-85
2022/03/09 16:29:44;;;;;;;19.00;14.00;;;9.80;63.60;;;;;;10456931;28;20248;-85
2022/03/09 16:34:48;;;;;;;18.20;14.53;;;9.70;62.00;;;;;;10429316;28;20225;-84
2022/03/09 16:39:51;;;;;;;19.77;14.10;;;9.60;57.60;;;;;;10413588;28;20225;-84
2022/03/09 16:44:53;;;;;;;19.50;16.30;;;9.70;56.30;;;;;;10411920;28;20268;-86
2022/03/09 16:49:57;;;;;;;21.03;17.20;;;9.80;55.60;;;;;;10404743;28;20194;-86
2022/03/09 16:54:59;;;;;;;17.70;14.80;;;9.80;55.80;;;;;;10422752;28;20218;-86
2022/03/09 17:00:02;;;;;;;18.60;15.07;;;9.70;55.50;;;;;;10409027;28;20225;-86
2022/03/09 17:05:06;;;;;;;22.07;16.40;;;9.70;55.80;;;;;;10424627;28;20241;-85
2022/03/09 17:10:09;;;;;;;19.00;15.97;;;9.60;56.80;;;;;;10425622;28;20201;-86
2022/03/09 17:15:11;;;;;;;19.07;14.47;;;9.50;56.30;;;;;;10437452;28;20218;-87
2022/03/09 17:20:15;;;;;;;15.57;13.63;;;9.30;56.60;;;;;;10402827;28;20226;-86
2022/03/09 17:25:17;;;;;;;18.57;14.80;;;9.10;56.20;;;;;;10430490;28;20224;-87
2022/03/09 17:30:20;;;;;;;18.47;14.97;;;9.00;56.10;;;;;;10445327;28;20197;-86
2022/03/09 17:35:23;;;;;;;19.80;14.97;;;8.80;57.00;;;;;;10423768;28;20229;-86
2022/03/09 17:40:26;;;;;;;20.80;14.53;;;8.70;57.10;;;;;;10447501;28;20211;-87
2022/03/09 17:45:28;;;;;;;19.17;16.13;;;8.50;57.00;;;;;;10451710;28;20667;-86
2022/03/09 17:50:32;;;;;;;18.30;16.20;;;8.40;57.70;;;;;;10437593;28;20232;-84
2022/03/09 17:55:34;;;;;;;19.03;15.67;;;8.20;59.20;;;;;;10414677;28;20227;-86
2022/03/09 18:00:36;;;;;;;20.60;16.07;;;8.20;58.00;;;;;;10428435;28;20270;-85
2022/03/09 18:05:40;;;;;;;16.97;15.17;;;8.10;57.40;;;;;;10436444;28;20225;-85
2022/03/09 18:10:42;;;;;;;20.93;17.37;;;8.00;57.70;;;;;;10420603;28;20231;-86
2022/03/09 18:15:45;;;;;;;20.13;16.90;;;7.80;58.10;;;;;;10410475;28;20276;-85
2022/03/09 18:20:49;;;;;;;17.40;15.40;;;7.80;58.50;;;;;;10433748;28;20233;-86
2022/03/09 18:25:51;;;;;;;20.20;16.30;;;7.70;58.10;;;;;;10423041;28;20217;-86
2022/03/09 18:30:54;;;;;;;21.93;17.47;;;7.60;58.40;;;;;;10433431;28;20200;-85
2022/03/09 18:35:58;;;;;;;21.40;16.50;;;7.50;58.80;;;;;;10424102;28;20217;-86
2022/03/09 18:41:00;;;;;;;18.93;15.50;;;7.40;58.70;;;;;;10405561;28;20243;-85
2022/03/09 18:46:02;;;;;;;21.00;17.00;;;7.30;58.90;;;;;;10422598;28;20719;-84
2022/03/09 18:51:07;;;;;;;23.70;18.10;;;7.30;58.70;;;;;;10443807;28;20268;-84
2022/03/09 18:56:09;;;;;;;23.33;17.13;;;7.20;58.90;;;;;;10414811;28;20655;-84
2022/03/09 19:01:12;;;;;;;28.60;20.83;;;7.10;58.70;;;;;;10406247;28;20269;-84
2022/03/09 19:06:15;;;;;;;21.50;16.17;;;7.10;58.60;;;;;;10433467;28;20267;-84
2022/03/09 19:11:18;;;;;;;22.17;17.80;;;7.00;58.60;;;;;;10440402;28;20450;-85
2022/03/09 19:16:21;;;;;;;23.13;17.43;;;6.90;59.20;;;;;;10440928;28;20296;-84
2022/03/09 19:21:24;;;;;;;22.93;18.20;;;6.90;59.00;;;;;;10429773;28;20228;-85
2022/03/09 19:26:27;;;;;;;23.80;19.67;;;6.80;61.00;;;;;;10443284;28;20221;-87
2022/03/09 19:31:29;;;;;;;25.30;20.23;;;6.80;60.70;;;;;;10423397;28;20201;-84
2022/03/09 19:36:32;;;;;;;27.77;22.03;;;6.80;62.10;;;;;;10409214;28;20221;-86
2022/03/09 19:41:34;;;;;;;21.87;18.30;;;6.80;62.20;;;;;;10440582;28;20943;-84
2022/03/09 19:46:39;;;;;;;23.50;19.47;;;6.80;62.10;;;;;;10418072;28;20224;-84
2022/03/09 19:51:44;;;;;;;22.03;18.30;;;6.70;62.30;;;;;;10436106;28;20200;-84
2022/03/09 19:56:46;;;;;;;22.03;16.60;;;6.60;62.00;;;;;;10432526;28;20688;-83
2022/03/09 20:01:50;;;;;;;22.27;16.90;;;6.50;62.80;;;;;;10437368;28;20295;-86
2022/03/09 20:06:54;;;;;;;25.87;19.87;;;6.40;63.00;;;;;;10438515;28;20231;-84
2022/03/09 20:11:56;;;;;;;26.50;21.57;;;6.30;64.90;;;;;;10427515;28;20208;-86
2022/03/09 20:16:58;;;;;;;25.10;21.07;;;6.30;65.30;;;;;;10430267;28;20225;-88
2022/03/09 20:22:03;;;;;;;21.90;17.33;;;6.40;65.20;;;;;;10428077;28;20205;-86
2022/03/09 20:27:17;;;;;;;24.77;20.20;;;6.30;64.10;;;;;;10438981;28;20221;-85
2022/03/09 20:32:28;;;;;;;23.50;19.53;;;6.20;64.90;;;;;;10419597;28;20221;-84
2022/03/09 20:37:34;;;;;;;24.97;17.90;;;6.20;67.90;;;;;;10438265;28;20217;-87
2022/03/09 20:42:36;;;;;;;23.17;18.00;;;6.30;67.50;;;;;;10414046;28;20296;-84
2022/03/09 20:47:38;;;;;;;25.10;20.50;;;6.30;66.30;;;;;;10426947;23;20229;-82
2022/03/09 20:52:43;;;;;;;23.40;18.70;;;6.30;66.60;;;;;;10446470;28;20657;-84
2022/03/09 20:57:45;;;;;;;25.23;19.37;;;6.20;66.70;;;;;;10437797;28;20300;-82
2022/03/09 21:02:48;;;;;;;26.87;19.97;;;6.10;65.60;;;;;;10436392;28;20562;-82
2022/03/09 21:07:52;;;;;;;32.60;20.63;;;6.00;65.50;;;;;;10412610;28;20224;-83
2022/03/09 21:12:54;;;;;;;27.30;20.50;;;5.80;65.30;;;;;;10421088;28;20206;-83
2022/03/09 21:17:56;;;;;;;28.87;22.50;;;5.70;66.20;;;;;;10396523;28;20760;-82
2022/03/09 21:23:00;;;;;;;31.73;22.00;;;5.60;68.70;;;;;;10404005;28;20224;-83
2022/03/09 21:28:02;;;;;;;31.33;23.77;;;5.60;69.10;;;;;;10418875;28;20216;-82
2022/03/09 21:33:04;;;;;;;33.70;22.47;;;5.70;68.80;;;;;;10403226;28;20236;-83
2022/03/09 21:38:07;;;;;;;33.53;22.90;;;5.70;68.50;;;;;;10414513;28;20217;-82
2022/03/09 21:43:13;;;;;;;31.43;22.57;;;5.70;68.50;;;;;;10417314;28;20236;-83
2022/03/09 21:48:16;;;;;;;30.43;23.10;;;5.70;68.30;;;;;;10423047;28;20229;-83
2022/03/09 21:53:21;;;;;;;32.37;24.20;;;5.70;68.20;;;;;;10424162;28;20653;-82
2022/03/09 21:58:23;;;;;;;33.57;24.23;;;5.60;68.20;;;;;;10400676;28;20625;-82
2022/03/09 22:03:25;;;;;;;32.13;23.07;;;5.50;69.00;;;;;;10407589;28;20206;-81
2022/03/09 22:08:30;;;;;;;35.03;24.67;;;5.50;69.10;;;;;;10416190;28;20217;-81
2022/03/09 22:13:32;;;;;;;32.53;24.47;;;5.40;70.00;;;;;;10414126;28;20202;-82
2022/03/09 22:18:34;;;;;;;31.17;23.33;;;5.40;71.50;;;;;;10404085;28;20217;-83
2022/03/09 22:23:37;;;;;;;33.03;24.40;;;5.40;69.30;;;;;;10412123;28;20202;-81
2022/03/09 22:28:39;;;;;;;33.93;24.10;;;5.40;71.40;;;;;;10427763;28;20882;-80
2022/03/09 22:33:41;;;;;;;30.77;24.37;;;5.40;70.50;;;;;;10391501;28;20213;-81
2022/03/09 22:38:45;;;;;;;28.70;22.97;;;5.40;71.60;;;;;;10418646;28;20714;-83
2022/03/09 22:43:50;;;;;;;28.23;22.43;;;5.40;70.90;;;;;;10406116;28;20202;-83
2022/03/09 22:48:52;;;;;;;30.63;22.17;;;5.40;71.40;;;;;;10416138;28;20852;-81
2022/03/09 22:53:55;;;;;;;24.67;19.47;;;5.40;71.80;;;;;;10415911;28;20720;-82
2022/03/09 22:58:59;;;;;;;28.33;22.10;;;5.40;70.90;;;;;;10416013;28;20225;-82
2022/03/09 23:04:02;;;;;;;24.30;18.30;;;5.40;71.10;;;;;;10417819;28;20205;-82
2022/03/09 23:09:06;;;;;;;23.47;17.50;;;5.30;71.30;;;;;;10418241;28;20318;-81
2022/03/09 23:14:08;;;;;;;26.20;19.73;;;5.30;70.80;;;;;;10418023;28;20202;-83
2022/03/09 23:19:11;;;;;;;19.87;17.00;;;5.30;70.60;;;;;;10418102;28;20611;-81
2022/03/09 23:24:14;;;;;;;21.57;17.30;;;5.20;70.00;;;;;;10409565;28;20304;-83
2022/03/09 23:29:16;;;;;;;23.80;16.87;;;5.20;68.70;;;;;;10433712;28;20214;-83
2022/03/09 23:34:24;;;;;;;22.67;18.43;;;5.10;68.90;;;;;;10434257;28;20280;-82
2022/03/09 23:39:31;;;;;;;24.27;17.97;;;5.00;71.10;;;;;;10432665;28;20579;-82
2022/03/09 23:44:36;;;;;;;22.57;17.87;;;4.90;70.10;;;;;;10434488;28;20204;-83
2022/03/09 23:49:46;;;;;;;20.53;15.70;;;4.90;71.00;;;;;;10428277;28;20200;-82
2022/03/09 23:54:49;;;;;;;22.73;17.30;;;4.80;71.10;;;;;;10418474;28;20218;-81
2022/03/09 23:59:51;;;;;;;20.37;16.03;;;4.80;71.10;;;;;;10418288;28;20226;-80
